Latest Weather Observations for South Channel Island

IDV60801

Issued at 4:35 pm EST Wednesday 30 July 2014 (issued every 30 minutes, with the page automatically refreshed every 10 minutes)

About weather observations | Map of weather stations | Latest weather observations for VIC | Other Formats
Station Details ID: 086344 Name: SOUTH CHANNEL ISLAND Lat: -38.31 Lon: 144.80 Height: 9.0 m
Data from the previous 72 hours. | See also: Recent months for locations in Victoria
Date/Time
EST
Temp
°C
App
Temp
°C
Dew
Point
Rel
Hum
%
Delta-T
°C
Wind Press
QNH
hPa
Press
MSL
hPa
Rain
since 9 am
mm
Dir
 
Spd
km/h
Gust
km/h
Spd
kts
Gust
kts
30/04:30pm - - - - - NNW 35 41 19 22 - - -
30/04:00pm - - - - - NW 33 37 18 20 - - -
30/03:30pm - - - - - NW 39 48 21 26 - - -
30/03:00pm - - - - - NW 39 56 21 30 - - -
30/02:56pm - - - - - NW 33 50 18 27 - - -
30/02:30pm - - - - - NW 26 30 14 16 - - -
30/02:00pm - - - - - NNW 33 39 18 21 - - -
30/01:30pm - - - - - NW 43 56 23 30 - - -
30/01:26pm - - - - - NW 43 56 23 30 - - -
30/01:00pm - - - - - NW 33 37 18 20 - - -
30/12:30pm - - - - - WNW 39 50 21 27 - - -
30/12:00pm - - - - - NW 50 67 27 36 - - -
30/11:30am - - - - - NNW 43 50 23 27 - - -
30/11:00am - - - - - NNW 35 44 19 24 - - -
30/10:30am - - - - - N 32 37 17 20 - - -
30/10:00am - - - - - N 35 37 19 20 - - -
30/09:30am - - - - - N 39 50 21 27 - - -
30/09:00am - - - - - N 32 35 17 19 - - -
30/08:30am - - - - - N 28 33 15 18 - - -
30/08:00am - - - - - N 24 28 13 15 - - -
30/07:30am - - - - - NNW 30 41 16 22 - - -
30/07:00am - - - - - NNW 30 35 16 19 - - -
30/06:30am - - - - - NNW 28 33 15 18 - - -
30/06:00am - - - - - NW 28 37 15 20 - - -
30/05:30am - - - - - NW 41 50 22 27 - - -
30/05:00am - - - - - NW 43 50 23 27 - - -
30/04:30am - - - - - NW 41 48 22 26 - - -
30/04:00am - - - - - WNW 41 46 22 25 - - -
30/03:30am - - - - - WNW 44 56 24 30 - - -
30/03:21am - - - - - WNW 35 52 19 28 - - -
30/03:00am - - - - - NW 28 33 15 18 - - -
30/02:30am - - - - - WNW 32 44 17 24 - - -
30/02:00am - - - - - W 46 56 25 30 - - -
30/01:30am - - - - - WNW 50 61 27 33 - - -
30/01:00am - - - - - WNW 37 50 20 27 - - -
30/12:30am - - - - - NW 46 57 25 31 - - -
30/12:00am - - - - - NW 44 50 24 27 - - -
 
Date/Time
EST
Temp
°C
App
Temp
°C
Dew
Point
Rel
Hum
%
Delta-T
°C
Wind Press
QNH
hPa
Press
MSL
hPa
Rain
since 9 am
mm
Dir
 
Spd
km/h
Gust
km/h
Spd
kts
Gust
kts
29/11:30pm - - - - - WNW 52 61 28 33 - - -
29/11:10pm - - - - - WNW 57 63 31 34 - - -
29/11:06pm - - - - - WNW 39 63 21 34 - - -
29/11:00pm - - - - - WNW 43 52 23 28 - - -
29/10:30pm - - - - - NW 50 57 27 31 - - -
29/10:00pm - - - - - WNW 43 54 23 29 - - -
29/09:47pm - - - - - WNW 35 37 19 20 - - -
29/09:30pm - - - - - W 44 57 24 31 - - -
29/09:20pm - - - - - W 41 46 22 25 - - -
29/09:15pm - - - - - NW 50 69 27 37 - - -
29/09:00pm - - - - - NW 48 59 26 32 - - -
29/08:30pm - - - - - NW 48 59 26 32 - - -
29/08:00pm - - - - - NW 46 59 25 32 - - -
29/07:30pm - - - - - NW 46 57 25 31 - - -
29/07:00pm - - - - - NW 48 59 26 32 - - -
29/06:30pm - - - - - NW 52 61 28 33 - - -
29/06:03pm - - - - - NNW 54 72 29 39 - - -
29/06:00pm - - - - - NNW 52 61 28 33 - - -
29/05:30pm - - - - - NNW 50 63 27 34 - - -
29/05:00pm - - - - - NNW 50 70 27 38 - - -
29/04:30pm - - - - - NNW 48 59 26 32 - - -
29/04:08pm - - - - - NW 61 80 33 43 - - -
29/04:04pm - - - - - NW 67 80 36 43 - - -
29/04:00pm - - - - - NW 43 67 23 36 - - -
29/03:58pm - - - - - NW 41 59 22 32 - - -
29/03:30pm - - - - - NW 54 65 29 35 - - -
29/03:01pm - - - - - NNW 46 70 25 38 - - -
29/03:00pm - - - - - NNW 46 56 25 30 - - -
29/02:30pm - - - - - NNW 44 61 24 33 - - -
29/02:24pm - - - - - NNW 44 63 24 34 - - -
29/02:00pm - - - - - NNW 43 52 23 28 - - -
29/01:47pm - - - - - N 41 69 22 37 - - -
29/01:30pm - - - - - N 35 44 19 24 - - -
29/01:00pm - - - - - N 33 41 18 22 - - -
29/12:55pm - - - - - N 37 56 20 30 - - -
29/12:30pm - - - - - N 46 57 25 31 - - -
29/12:00pm - - - - - N 46 56 25 30 - - -
29/11:30am - - - - - N 50 59 27 32 - - -
29/11:00am - - - - - NNW 59 74 32 40 - - -
29/10:30am - - - - - NNW 57 67 31 36 - - -
29/10:00am - - - - - NNW 59 67 32 36 - - -
29/09:30am - - - - - N 57 63 31 34 - - -
29/09:00am - - - - - N 52 59 28 32 - - -
29/08:30am - - - - - N 54 63 29 34 - - -
29/08:00am - - - - - N 54 61 29 33 - - -
29/07:30am - - - - - NNE 43 50 23 27 - - -
29/07:00am - - - - - NNE 43 50 23 27 - - -
29/06:30am - - - - - NNE 35 41 19 22 - - -
29/06:00am - - - - - NNE 41 46 22 25 - - -
29/05:30am - - - - - NNE 44 50 24 27 - - -
29/05:00am - - - - - N 43 48 23 26 - - -
29/04:30am - - - - - N 44 50 24 27 - - -
29/04:00am - - - - - N 43 50 23 27 - - -
29/03:30am - - - - - N 41 50 22 27 - - -
29/03:00am - - - - - N 39 44 21 24 - - -
29/02:30am - - - - - N 39 48 21 26 - - -
29/02:00am - - - - - N 43 48 23 26 - - -
29/01:30am - - - - - N 44 52 24 28 - - -
29/01:00am - - - - - N 43 48 23 26 - - -
29/12:30am - - - - - N 43 50 23 27 - - -
29/12:00am - - - - - N 37 43 20 23 - - -
 
Date/Time
EST
Temp
°C
App
Temp
°C
Dew
Point
Rel
Hum
%
Delta-T
°C
Wind Press
QNH
hPa
Press
MSL
hPa
Rain
since 9 am
mm
Dir
 
Spd
km/h
Gust
km/h
Spd
kts
Gust
kts
28/11:30pm - - - - - N 43 48 23 26 - - -
28/11:00pm - - - - - N 44 52 24 28 - - -
28/10:30pm - - - - - N 44 52 24 28 - - -
28/10:00pm - - - - - N 39 48 21 26 - - -
28/09:30pm - - - - - N 39 46 21 25 - - -
28/09:00pm - - - - - N 37 43 20 23 - - -
28/08:30pm - - - - - N 35 39 19 21 - - -
28/08:00pm - - - - - N 35 39 19 21 - - -
28/07:30pm - - - - - N 39 43 21 23 - - -
28/07:00pm - - - - - N 43 48 23 26 - - -
28/06:30pm - - - - - N 39 44 21 24 - - -
28/06:00pm - - - - - N 32 35 17 19 - - -
28/05:30pm - - - - - N 24 28 13 15 - - -
28/05:00pm - - - - - NNW 26 32 14 17 - - -
28/04:30pm - - - - - NNW 30 35 16 19 - - -
28/04:00pm - - - - - NW 32 35 17 19 - - -
28/03:30pm - - - - - NW 41 52 22 28 - - -
28/03:00pm - - - - - WNW 44 54 24 29 - - -
28/02:46pm - - - - - NW 39 46 21 25 - - -
28/02:30pm - - - - - N 28 33 15 18 - - -
28/02:00pm - - - - - N 33 39 18 21 - - -
28/01:30pm - - - - - N 28 32 15 17 - - -
28/01:00pm - - - - - N 32 35 17 19 - - -
28/12:30pm - - - - - N 32 37 17 20 - - -
28/12:00pm - - - - - N 35 39 19 21 - - -
28/11:30am - - - - - N 32 37 17 20 - - -
28/11:00am - - - - - N 28 32 15 17 - - -
28/10:30am - - - - - N 32 37 17 20 - - -
28/10:00am - - - - - N 39 44 21 24 - - -
28/09:30am - - - - - N 48 54 26 29 - - -
28/09:00am - - - - - N 46 54 25 29 - - -
28/08:30am - - - - - N 43 50 23 27 - - -
28/08:00am - - - - - N 39 44 21 24 - - -
28/07:30am - - - - - N 41 48 22 26 - - -
28/07:00am - - - - - N 43 50 23 27 - - -
28/06:30am - - - - - N 46 50 25 27 - - -
28/06:00am - - - - - N 44 52 24 28 - - -
28/05:30am - - - - - N 48 54 26 29 - - -
28/05:00am - - - - - N 50 56 27 30 - - -
28/04:30am - - - - - N 46 56 25 30 - - -
28/04:00am - - - - - N 50 57 27 31 - - -
28/03:30am - - - - - N 52 59 28 32 - - -
28/03:00am - - - - - N 56 63 30 34 - - -
28/02:30am - - - - - N 57 65 31 35 - - -
28/02:00am - - - - - N 52 61 28 33 - - -
28/01:30am - - - - - N 48 59 26 32 - - -
28/01:00am - - - - - N 46 57 25 31 - - -
28/12:30am - - - - - N 44 52 24 28 - - -
28/12:00am - - - - - N 44 52 24 28 - - -
 
Date/Time
EST
Temp
°C
App
Temp
°C
Dew
Point
Rel
Hum
%
Delta-T
°C
Wind Press
QNH
hPa
Press
MSL
hPa
Rain
since 9 am
mm
Dir
 
Spd
km/h
Gust
km/h
Spd
kts
Gust
kts
27/11:30pm - - - - - N 48 56 26 30 - - -
27/11:00pm - - - - - N 46 54 25 29 - - -
27/10:30pm - - - - - N 43 50 23 27 - - -
27/10:00pm - - - - - N 44 50 24 27 - - -
27/09:30pm - - - - - N 37 43 20 23 - - -
27/09:00pm - - - - - N 39 44 21 24 - - -
27/08:30pm - - - - - N 41 44 22 24 - - -
27/08:00pm - - - - - N 39 43 21 23 - - -
27/07:30pm - - - - - N 32 35 17 19 - - -
27/07:00pm - - - - - N 28 30 15 16 - - -
27/06:30pm - - - - - N 28 32 15 17 - - -
27/06:00pm - - - - - NNW 28 30 15 16 - - -
27/05:30pm - - - - - N 33 37 18 20 - - -
27/05:00pm - - - - - N 37 41 20 22 - - -

Other Formats:

Comma delimited format used in spreadsheet applications
http://www.bom.gov.au/fwo/IDV60801/IDV60801.94853.axf

JavaScript Object Notation format (JSON) in row-major order
http://www.bom.gov.au/fwo/IDV60801/IDV60801.94853.json